createdAt,value
2023-03-05T00:01:46.873Z,59.14
2023-03-05T00:04:19.489Z,59.77
2023-03-05T00:06:50.773Z,59.49
2023-03-05T00:09:21.564Z,59.59
2023-03-05T00:11:52.357Z,59.56
2023-03-05T00:14:23.037Z,59.86
2023-03-05T00:16:53.929Z,59.68
2023-03-05T00:19:25.215Z,59.65
2023-03-05T00:21:56.305Z,59.57
2023-03-05T00:24:27.025Z,59.69
2023-03-05T00:26:57.768Z,59.80
2023-03-05T00:29:31.562Z,59.71
2023-03-05T00:32:02.933Z,59.72
2023-03-05T00:34:34.091Z,59.92
2023-03-05T00:37:05.064Z,60.13
2023-03-05T00:39:35.880Z,59.77
2023-03-05T00:42:07.234Z,59.66
2023-03-05T00:44:38.065Z,59.63
2023-03-05T00:47:09.124Z,59.79
2023-03-05T00:49:40.091Z,59.64
2023-03-05T00:52:10.937Z,59.75
2023-03-05T00:54:41.820Z,59.98
2023-03-05T00:57:12.608Z,60.02
2023-03-05T00:59:43.337Z,59.95
2023-03-05T01:02:14.017Z,59.97
2023-03-05T01:04:47.349Z,60.15
2023-03-05T01:07:18.388Z,60.05
2023-03-05T01:09:49.334Z,60.15
2023-03-05T01:12:20.181Z,60.15
2023-03-05T01:14:50.841Z,60.18
2023-03-05T01:17:21.632Z,60.45
2023-03-05T01:19:52.419Z,60.45
2023-03-05T01:22:23.241Z,60.53
2023-03-05T01:24:53.935Z,60.51
2023-03-05T01:27:24.757Z,60.65
2023-03-05T01:29:55.768Z,60.66
2023-03-05T01:32:26.429Z,60.84
2023-03-05T01:34:57.213Z,60.76
2023-03-05T01:37:28.055Z,60.79
2023-03-05T01:39:59.154Z,60.92
2023-03-05T01:42:30.020Z,60.83
2023-03-05T01:45:05.026Z,60.93
2023-03-05T01:47:35.770Z,61.00
2023-03-05T01:50:07.208Z,60.83
2023-03-05T01:52:38.170Z,60.75
2023-03-05T01:55:09.932Z,60.63
2023-03-05T01:57:41.689Z,60.79
2023-03-05T02:00:14.782Z,60.78
2023-03-05T02:02:46.124Z,61.10
2023-03-05T02:05:18.191Z,61.10
2023-03-05T02:07:49.014Z,61.00
2023-03-05T02:10:21.187Z,61.18
2023-03-05T02:12:51.916Z,61.10
2023-03-05T02:15:22.829Z,61.27
2023-03-05T02:17:53.839Z,61.25
2023-03-05T02:20:25.541Z,61.28
2023-03-05T02:22:56.527Z,61.11
2023-03-05T02:25:27.993Z,61.12
2023-03-05T02:28:00.129Z,61.32
2023-03-05T02:30:31.488Z,61.40
2023-03-05T02:33:02.256Z,61.30
2023-03-05T02:35:33.209Z,61.81
2023-03-05T02:38:03.993Z,61.85
2023-03-05T02:40:34.850Z,61.78
2023-03-05T02:43:05.772Z,61.90
2023-03-05T02:45:36.658Z,61.60
2023-03-05T02:48:07.828Z,61.75
2023-03-05T02:50:39.872Z,61.66
2023-03-05T02:53:10.730Z,61.53
2023-03-05T02:55:41.840Z,61.83
2023-03-05T02:58:12.555Z,61.59
2023-03-05T03:00:43.479Z,61.69
2023-03-05T03:03:14.365Z,61.75
2023-03-05T03:05:45.097Z,61.97
2023-03-05T03:08:16.528Z,61.52
2023-03-05T03:10:47.441Z,61.92
2023-03-05T03:13:18.467Z,61.62
2023-03-05T03:15:49.145Z,61.72
2023-03-05T03:18:20.014Z,61.77
2023-03-05T03:20:50.854Z,62.03
2023-03-05T03:23:21.696Z,61.74
2023-03-05T03:25:52.542Z,61.76
2023-03-05T03:28:23.535Z,62.04
2023-03-05T03:30:54.355Z,62.01
2023-03-05T03:33:25.363Z,61.95
2023-03-05T03:35:56.252Z,61.74
2023-03-05T03:38:27.014Z,61.91
2023-03-05T03:40:57.743Z,62.10
2023-03-05T03:43:28.605Z,61.95
2023-03-05T03:45:59.374Z,62.05
2023-03-05T03:48:30.081Z,61.81
2023-03-05T03:51:00.930Z,62.36
2023-03-05T03:53:31.730Z,62.10
2023-03-05T03:56:02.515Z,62.01
2023-03-05T03:58:33.551Z,62.37
2023-03-05T04:01:04.466Z,62.41
2023-03-05T04:03:35.466Z,62.38
2023-03-05T04:06:07.284Z,62.07
2023-03-05T04:08:38.289Z,62.13
2023-03-05T04:11:09.281Z,62.40
2023-03-05T04:13:40.098Z,62.53
2023-03-05T04:16:11.085Z,62.55
2023-03-05T04:18:41.994Z,62.27
2023-03-05T04:21:12.927Z,62.33
2023-03-05T04:23:43.877Z,62.42
2023-03-05T04:26:14.637Z,62.24
2023-03-05T04:28:45.437Z,62.51
2023-03-05T04:31:17.418Z,62.26
2023-03-05T04:33:48.261Z,62.52
2023-03-05T04:36:19.114Z,62.40
2023-03-05T04:38:49.963Z,62.69
2023-03-05T04:41:20.712Z,62.47
2023-03-05T04:43:51.520Z,62.81
2023-03-05T04:46:22.306Z,62.57
2023-03-05T04:48:53.102Z,62.43
2023-03-05T04:51:24.041Z,62.66
2023-03-05T04:53:54.859Z,62.16
2023-03-05T04:56:25.668Z,62.42
2023-03-05T04:58:56.444Z,62.55
2023-03-05T05:01:27.317Z,62.54
2023-03-05T05:03:58.230Z,62.54
2023-03-05T05:06:28.936Z,62.62
2023-03-05T05:08:59.608Z,62.72
2023-03-05T05:11:30.387Z,62.57
2023-03-05T05:14:01.185Z,62.95
2023-03-05T05:16:32.227Z,62.69
2023-03-05T05:19:03.947Z,62.69
2023-03-05T05:21:34.774Z,62.36
2023-03-05T05:24:06.156Z,62.73
2023-03-05T05:26:37.050Z,62.54
2023-03-05T05:29:07.857Z,62.44
2023-03-05T05:31:39.206Z,62.81
2023-03-05T05:34:10.135Z,62.76
2023-03-05T05:36:40.920Z,62.82
2023-03-05T05:39:12.156Z,62.69
2023-03-05T05:41:42.913Z,62.83
2023-03-05T05:44:13.695Z,62.91
2023-03-05T05:46:44.600Z,62.74
2023-03-05T05:49:15.392Z,62.82
2023-03-05T05:51:46.348Z,63.04
2023-03-05T05:54:17.240Z,62.62
2023-03-05T05:56:48.083Z,62.90
2023-03-05T05:59:18.938Z,62.76
2023-03-05T06:01:49.783Z,63.07
2023-03-05T06:04:20.680Z,63.07
2023-03-05T06:06:51.549Z,62.75
2023-03-05T06:09:22.478Z,62.95
2023-03-05T06:11:53.356Z,62.91
2023-03-05T06:14:24.162Z,63.02
2023-03-05T06:16:55.098Z,62.89
2023-03-05T06:19:25.899Z,62.72
2023-03-05T06:21:56.715Z,62.97
2023-03-05T06:24:27.679Z,63.25
2023-03-05T06:26:58.447Z,63.12
2023-03-05T06:29:29.269Z,63.10
2023-03-05T06:32:00.346Z,63.17
2023-03-05T06:34:31.139Z,63.10
2023-03-05T06:37:01.963Z,63.25
2023-03-05T06:39:33.582Z,63.12
2023-03-05T06:42:04.479Z,62.68
2023-03-05T06:44:35.206Z,62.54
2023-03-05T06:47:07.470Z,62.62
2023-03-05T06:49:38.619Z,62.82
2023-03-05T06:52:11.001Z,62.82
2023-03-05T06:54:41.771Z,62.78
2023-03-05T06:57:13.778Z,62.64
2023-03-05T06:59:44.595Z,62.72
2023-03-05T07:02:15.889Z,62.63
2023-03-05T07:04:46.782Z,62.18
2023-03-05T07:07:17.631Z,62.31
2023-03-05T07:09:51.942Z,61.96
2023-03-05T07:12:22.798Z,62.05
2023-03-05T07:15:00.577Z,62.22
2023-03-05T07:17:33.486Z,61.97
2023-03-05T07:20:13.056Z,62.03
2023-03-05T07:22:49.429Z,62.00
2023-03-05T07:28:33.791Z,61.41
2023-03-05T07:31:11.890Z,61.49
2023-03-05T07:34:01.570Z,61.39
2023-03-05T07:36:44.543Z,61.43
2023-03-05T07:42:50.561Z,61.27
2023-03-05T07:45:25.272Z,61.14
2023-03-05T07:48:02.610Z,60.97
2023-03-05T07:53:47.562Z,60.67
2023-03-05T07:56:29.088Z,60.86
2023-03-05T07:59:00.812Z,60.70
2023-03-05T08:01:34.617Z,60.53
2023-03-05T08:04:06.864Z,60.52
2023-03-05T08:06:39.917Z,60.66
2023-03-05T08:09:10.814Z,60.62
2023-03-05T08:11:43.364Z,60.24
2023-03-05T08:14:20.257Z,60.46
2023-03-05T08:16:52.498Z,60.53
2023-03-05T08:19:23.421Z,60.27
2023-03-05T08:21:55.649Z,60.15
2023-03-05T08:24:29.957Z,60.31
2023-03-05T08:27:01.237Z,60.12
2023-03-05T08:29:32.609Z,60.01
2023-03-05T08:32:19.360Z,60.05
2023-03-05T08:34:58.112Z,59.98
2023-03-05T08:37:30.081Z,59.97
2023-03-05T08:40:04.107Z,59.94
2023-03-05T08:42:43.381Z,59.89
2023-03-05T08:45:17.233Z,59.87
2023-03-05T08:47:48.526Z,59.55
2023-03-05T08:50:19.452Z,59.76
2023-03-05T08:52:50.248Z,59.70
2023-03-05T08:55:21.279Z,59.77
2023-03-05T08:58:15.550Z,59.73
2023-03-05T09:00:53.795Z,59.76
2023-03-05T09:03:24.714Z,59.77
2023-03-05T09:05:55.528Z,59.67
2023-03-05T09:08:26.211Z,59.88
2023-03-05T09:10:57.384Z,59.81
2023-03-05T09:13:28.311Z,59.49
2023-03-05T09:16:00.427Z,59.47
2023-03-05T09:18:31.177Z,59.45
2023-03-05T09:21:01.945Z,59.17
2023-03-05T09:23:32.663Z,59.05
2023-03-05T09:26:03.494Z,59.00
2023-03-05T09:28:34.402Z,59.04
2023-03-05T09:31:05.777Z,59.16
2023-03-05T09:33:36.753Z,59.08
2023-03-05T09:36:16.596Z,58.76
2023-03-05T09:38:47.490Z,59.09
2023-03-05T09:41:19.348Z,58.97
2023-03-05T09:43:52.949Z,58.67
2023-03-05T09:46:28.285Z,58.98
2023-03-05T09:49:01.207Z,58.69
2023-03-05T09:51:35.656Z,58.13
2023-03-05T09:54:06.630Z,58.10
2023-03-05T09:56:38.195Z,58.12
2023-03-05T09:59:13.258Z,57.50
2023-03-05T10:01:45.747Z,57.55
2023-03-05T10:04:17.055Z,57.38
2023-03-05T10:06:51.180Z,57.25
2023-03-05T10:09:25.409Z,57.13
2023-03-05T10:11:56.538Z,56.89
2023-03-05T10:14:29.105Z,56.99
2023-03-05T10:17:04.934Z,56.97
2023-03-05T10:19:53.932Z,56.73
2023-03-05T10:22:26.411Z,56.18
2023-03-05T10:25:12.734Z,55.94
2023-03-05T10:27:48.740Z,55.88
2023-03-05T10:30:33.417Z,55.94
2023-03-05T10:33:08.192Z,55.12
2023-03-05T10:35:55.807Z,55.06
2023-03-05T10:38:32.434Z,55.11
2023-03-05T10:41:04.564Z,54.82
2023-03-05T10:43:36.760Z,54.58
2023-03-05T10:46:07.702Z,54.65
2023-03-05T10:48:39.228Z,54.38
2023-03-05T10:51:13.770Z,54.32
2023-03-05T10:53:49.610Z,54.17
2023-03-05T10:56:30.162Z,54.24
2023-03-05T11:02:08.995Z,54.11
2023-03-05T11:04:50.349Z,53.28
2023-03-05T11:10:42.213Z,53.50
2023-03-05T11:16:49.715Z,52.26
2023-03-05T11:19:21.770Z,52.50
2023-03-05T11:25:06.662Z,52.34
2023-03-05T11:27:44.190Z,52.20
2023-03-05T11:30:21.480Z,52.22
2023-03-05T11:32:52.590Z,51.80
2023-03-05T11:38:56.113Z,51.45
2023-03-05T11:41:28.816Z,51.52
2023-03-05T11:44:04.377Z,51.10
2023-03-05T11:46:39.158Z,50.85
2023-03-05T11:49:10.171Z,50.70
2023-03-05T11:51:42.677Z,50.75
2023-03-05T11:54:26.925Z,50.72
2023-03-05T11:57:12.399Z,50.46
2023-03-05T11:59:43.300Z,50.07
2023-03-05T12:02:21.301Z,49.78
2023-03-05T12:05:06.695Z,49.47
2023-03-05T12:07:43.601Z,49.39
2023-03-05T12:10:19.321Z,49.35
2023-03-05T12:12:52.598Z,49.06
2023-03-05T12:15:39.258Z,49.33
2023-03-05T12:18:12.358Z,49.09
2023-03-05T12:20:47.460Z,48.74
2023-03-05T12:23:20.324Z,48.57
2023-03-05T12:25:52.618Z,48.64
2023-03-05T12:28:37.297Z,48.28
2023-03-05T12:31:23.539Z,48.30
2023-03-05T12:33:56.153Z,48.39
2023-03-05T12:36:35.825Z,47.63
2023-03-05T12:39:22.266Z,47.50
2023-03-05T12:41:57.196Z,47.56
2023-03-05T12:44:30.419Z,47.42
2023-03-05T12:47:24.162Z,47.74
2023-03-05T12:49:56.617Z,47.67
2023-03-05T12:52:28.828Z,47.56
2023-03-05T12:55:22.830Z,47.37
2023-03-05T12:57:58.170Z,47.40
2023-03-05T13:00:34.632Z,47.29
2023-03-05T13:03:11.729Z,47.26
2023-03-05T13:07:05.091Z,47.31
2023-03-05T13:09:36.686Z,47.31
2023-03-05T13:12:11.717Z,47.07
2023-03-05T13:14:42.705Z,46.88
2023-03-05T13:17:33.248Z,47.11
2023-03-05T13:20:18.078Z,46.95
2023-03-05T13:22:52.563Z,47.16
2023-03-05T13:25:26.940Z,46.98
2023-03-05T13:28:05.194Z,46.88
2023-03-05T13:30:36.123Z,46.86
2023-03-05T13:33:08.997Z,47.05
2023-03-05T13:35:43.814Z,46.84
2023-03-05T13:38:33.780Z,46.86
2023-03-05T13:41:12.721Z,46.88
2023-03-05T13:43:50.184Z,46.93
2023-03-05T13:46:29.213Z,46.80
2023-03-05T13:49:18.041Z,46.95
2023-03-05T13:51:49.808Z,46.88
2023-03-05T13:54:20.815Z,46.92
2023-03-05T13:56:52.794Z,46.99
2023-03-05T13:59:24.532Z,46.84
2023-03-05T14:01:55.402Z,46.73
2023-03-05T14:04:27.171Z,46.59
2023-03-05T14:06:59.466Z,46.66
2023-03-05T14:09:30.798Z,46.57
2023-03-05T14:12:02.963Z,46.54
2023-03-05T14:14:35.821Z,46.61
2023-03-05T14:17:20.119Z,46.65
2023-03-05T14:19:51.052Z,46.60
2023-03-05T14:22:32.705Z,46.57
2023-03-05T14:25:03.691Z,46.64
2023-03-05T14:27:35.312Z,46.55
2023-03-05T14:30:07.509Z,46.38
2023-03-05T14:32:38.803Z,46.46
2023-03-05T14:35:19.662Z,46.49
2023-03-05T14:37:51.195Z,46.61
2023-03-05T14:40:32.473Z,46.50
2023-03-05T14:43:07.310Z,46.25
2023-03-05T14:45:44.449Z,46.31
2023-03-05T14:48:19.116Z,46.42
2023-03-05T14:50:53.237Z,46.32
2023-03-05T14:53:25.853Z,46.30
2023-03-05T14:56:01.821Z,46.34
2023-03-05T14:58:35.578Z,46.30
2023-03-05T15:01:07.631Z,46.34
2023-03-05T15:03:41.213Z,46.37
2023-03-05T15:06:15.924Z,46.20
2023-03-05T15:08:46.847Z,46.22
2023-03-05T15:11:17.565Z,46.21
2023-03-05T15:13:50.191Z,46.28
2023-03-05T15:16:21.122Z,46.20
2023-03-05T15:18:52.009Z,46.18
2023-03-05T15:21:22.866Z,46.18
2023-03-05T15:23:54.676Z,46.26
2023-03-05T15:26:26.092Z,46.16
2023-03-05T15:31:30.403Z,46.14
2023-03-05T15:34:01.444Z,46.16
2023-03-05T15:36:33.748Z,46.14
2023-03-05T15:39:04.873Z,46.10
2023-03-05T15:41:35.631Z,46.33
2023-03-05T15:44:07.028Z,46.17
2023-03-05T15:55:56.895Z,46.12
2023-03-05T15:58:31.204Z,46.10
2023-03-05T16:01:02.222Z,46.14
2023-03-05T16:03:33.846Z,46.13
2023-03-05T16:06:06.391Z,46.13
2023-03-05T16:08:37.392Z,46.04
2023-03-05T16:11:08.316Z,46.15
2023-03-05T16:19:45.439Z,46.13
2023-03-05T16:22:22.874Z,46.24
2023-03-05T16:25:22.162Z,46.19
2023-03-05T16:27:52.896Z,46.20
2023-03-05T16:30:28.891Z,46.18
2023-03-05T16:33:02.770Z,46.10
2023-03-05T16:35:33.709Z,46.19
2023-03-05T16:38:04.716Z,46.21
2023-03-05T16:41:02.867Z,46.25
2023-03-05T16:43:26.724Z,46.25
2023-03-05T16:45:57.425Z,46.23
2023-03-05T16:48:28.370Z,46.19
2023-03-05T16:50:59.420Z,46.24
2023-03-05T16:53:34.433Z,46.29
2023-03-05T16:56:06.105Z,46.30
2023-03-05T16:58:37.710Z,46.25
2023-03-05T17:01:12.321Z,46.25
2023-03-05T17:04:08.833Z,46.24
2023-03-05T17:06:39.678Z,46.29
2023-03-05T17:09:10.584Z,46.34
2023-03-05T17:11:45.245Z,46.29
2023-03-05T17:20:35.727Z,46.22
2023-03-05T17:23:06.449Z,46.21
2023-03-05T17:25:37.249Z,46.34
2023-03-05T17:28:08.174Z,46.34
2023-03-05T17:30:39.024Z,46.46
2023-03-05T17:33:17.378Z,46.50
2023-03-05T17:35:52.846Z,46.52
2023-03-05T17:38:23.670Z,46.55
2023-03-05T17:40:56.886Z,46.68
2023-03-05T17:43:28.034Z,46.66
2023-03-05T17:46:00.854Z,46.72
2023-03-05T17:48:34.354Z,46.68
2023-03-05T17:51:06.318Z,46.60
2023-03-05T17:53:39.136Z,46.75
2023-03-05T17:56:25.221Z,46.77
2023-03-05T17:59:06.656Z,46.87
2023-03-05T18:01:39.025Z,46.84
2023-03-05T18:04:11.290Z,46.92
2023-03-05T18:07:04.634Z,46.82
2023-03-05T18:09:58.938Z,46.97
2023-03-05T18:12:30.232Z,46.82
2023-03-05T18:15:01.083Z,46.91
2023-03-05T18:17:31.846Z,46.83
2023-03-05T18:20:13.326Z,46.82
2023-03-05T18:23:01.143Z,46.92
2023-03-05T18:25:32.404Z,47.06
2023-03-05T18:28:04.774Z,47.02
2023-03-05T18:30:35.791Z,47.15
2023-03-05T18:33:09.316Z,47.07
2023-03-05T18:35:40.356Z,47.20
2023-03-05T18:38:11.150Z,46.86
2023-03-05T18:40:41.946Z,47.18
2023-03-05T18:43:17.971Z,47.37
2023-03-05T18:46:26.430Z,47.28
2023-03-05T18:49:01.947Z,47.25
2023-03-05T18:51:44.612Z,47.40
2023-03-05T18:54:29.758Z,47.50
2023-03-05T18:57:01.375Z,47.54
2023-03-05T18:59:34.689Z,47.58
2023-03-05T19:02:05.543Z,47.76
2023-03-05T19:04:36.635Z,47.51
2023-03-05T19:07:07.700Z,47.48
2023-03-05T19:09:59.017Z,47.56
2023-03-05T19:12:33.092Z,47.73
2023-03-05T19:15:04.344Z,47.63
2023-03-05T19:17:35.409Z,47.87
2023-03-05T19:20:08.005Z,47.88
2023-03-05T19:22:38.853Z,47.70
2023-03-05T19:25:11.516Z,47.86
2023-03-05T19:27:42.517Z,47.87
2023-03-05T19:30:16.132Z,47.95
2023-03-05T19:32:49.841Z,47.89
2023-03-05T19:35:20.824Z,48.17
2023-03-05T19:37:51.647Z,47.92
2023-03-05T19:40:22.661Z,48.06
2023-03-05T19:42:55.825Z,48.21
2023-03-05T19:45:26.621Z,48.18
2023-03-05T19:47:57.258Z,48.14
2023-03-05T19:50:28.095Z,48.21
2023-03-05T19:52:58.899Z,48.08
2023-03-05T19:55:29.973Z,48.27
2023-03-05T19:58:00.853Z,48.33
2023-03-05T20:00:34.638Z,48.58
2023-03-05T20:03:05.379Z,48.61
2023-03-05T20:05:37.020Z,48.46
2023-03-05T20:08:07.910Z,48.63
2023-03-05T20:10:38.819Z,48.72
2023-03-05T20:13:09.788Z,48.72
2023-03-05T20:15:40.590Z,48.81
2023-03-05T20:18:11.465Z,48.74
2023-03-05T20:20:42.343Z,48.99
2023-03-05T20:23:13.186Z,48.99
2023-03-05T20:25:44.113Z,48.97
2023-03-05T20:28:15.121Z,48.84
2023-03-05T20:30:45.891Z,48.71
2023-03-05T20:33:16.669Z,48.43
2023-03-05T20:35:47.540Z,48.24
2023-03-05T20:38:26.326Z,48.27
2023-03-05T20:40:58.873Z,48.32
2023-03-05T20:43:30.505Z,48.39
2023-03-05T20:46:01.647Z,48.05
2023-03-05T20:48:33.048Z,48.13
2023-03-05T20:51:13.103Z,48.14
2023-03-05T20:53:43.942Z,48.11
2023-03-05T20:56:14.826Z,48.10
2023-03-05T20:58:45.721Z,48.12
2023-03-05T21:01:16.506Z,48.07
2023-03-05T21:03:47.351Z,47.96
2023-03-05T21:06:18.126Z,47.86
2023-03-05T21:08:49.049Z,47.75
2023-03-05T21:11:19.976Z,47.84
2023-03-05T21:13:50.762Z,47.86
2023-03-05T21:16:22.576Z,47.61
2023-03-05T21:18:53.709Z,47.65
2023-03-05T21:21:24.647Z,47.61
2023-03-05T21:23:55.593Z,47.60
2023-03-05T21:26:26.502Z,47.57
2023-03-05T21:28:57.385Z,47.61
2023-03-05T21:31:28.154Z,47.57
2023-03-05T21:33:58.951Z,47.58
2023-03-05T21:36:29.692Z,47.58
2023-03-05T21:39:00.913Z,47.49
2023-03-05T21:41:31.828Z,47.63
2023-03-05T21:44:04.263Z,47.60
2023-03-05T21:46:35.385Z,47.53
2023-03-05T21:49:06.248Z,47.68
2023-03-05T21:52:09.489Z,47.79
2023-03-05T21:54:40.482Z,47.73
2023-03-05T21:57:11.873Z,48.00
2023-03-05T21:59:42.993Z,47.94
2023-03-05T22:02:14.141Z,47.79
2023-03-05T22:04:45.066Z,47.88
2023-03-05T22:07:16.186Z,47.61
2023-03-05T22:09:47.295Z,47.87
2023-03-05T22:13:00.557Z,47.78
2023-03-05T22:15:31.391Z,47.69
2023-03-05T22:18:02.240Z,47.80
2023-03-05T22:20:35.097Z,47.91
2023-03-05T22:23:06.009Z,47.86
2023-03-05T22:25:36.894Z,47.81
2023-03-05T22:28:07.780Z,47.91
2023-03-05T22:30:38.890Z,47.62
2023-03-05T22:33:09.852Z,47.36
2023-03-05T22:35:41.455Z,47.72
2023-03-05T22:38:12.832Z,47.70
2023-03-05T22:40:44.339Z,47.96
2023-03-05T22:43:15.350Z,47.93
2023-03-05T22:45:46.425Z,47.52
2023-03-05T22:48:17.423Z,47.53
2023-03-05T22:50:48.253Z,47.75
2023-03-05T22:53:19.102Z,47.65
2023-03-05T22:55:50.672Z,47.85
2023-03-05T22:58:21.564Z,47.92
2023-03-05T23:00:52.512Z,48.07
2023-03-05T23:03:23.431Z,47.80
2023-03-05T23:05:54.354Z,48.01
2023-03-05T23:08:25.189Z,47.89
2023-03-05T23:10:56.028Z,47.80
2023-03-05T23:13:26.964Z,47.90
2023-03-05T23:15:57.954Z,47.89
2023-03-05T23:18:28.917Z,47.97
2023-03-05T23:20:59.887Z,47.75
2023-03-05T23:23:30.740Z,48.00
2023-03-05T23:26:01.524Z,48.09
2023-03-05T23:28:32.391Z,47.99
2023-03-05T23:31:04.048Z,47.90
2023-03-05T23:33:34.858Z,48.08
2023-03-05T23:36:06.016Z,47.92
2023-03-05T23:38:37.912Z,48.16
2023-03-05T23:41:10.049Z,48.09
2023-03-05T23:43:40.915Z,48.27
2023-03-05T23:46:13.110Z,48.29
2023-03-05T23:48:44.094Z,48.51
2023-03-05T23:51:15.036Z,48.62
2023-03-05T23:53:45.911Z,48.34
2023-03-05T23:56:16.839Z,48.58
2023-03-05T23:58:47.623Z,48.43
